Time;durP1;ratioP1;P1;durP2;ratioP2;P2;SDS_P1;SDS_P2;PMS_P1;PMS_P2;Temp;Humidity;BMP_temperature;BMP_pressure;BME280_temperature;BME280_humidity;BME280_pressure;Samples;Min_cycle;Max_cycle;Signal;HPM_P1;HPM_P2
2021/07/04 00:01:19;;;;;;;;;;;;;;;21.53;84.03;99711.30;1656879;85;20529;-83
2021/07/04 00:03:45;;;;;;;;;;;;;;;21.55;83.88;99712.70;1653861;85;20162;-82
2021/07/04 00:06:10;;;;;;;;;;;;;;;21.53;84.28;99713.45;1654215;84;21080;-83
2021/07/04 00:08:36;;;;;;;;;;;;;;;21.44;84.75;99712.16;1654600;86;20202;-83
2021/07/04 00:11:07;;;;;;;;;;;;;;;21.62;84.08;99709.86;1653694;85;20187;-81
2021/07/04 00:13:32;;;;;;;;;;;;;;;21.69;83.60;99705.17;1649860;85;20206;-81
2021/07/04 00:15:58;;;;;;;;;;;;;;;21.64;83.85;99707.23;1653377;85;20167;-83
2021/07/04 00:18:26;;;;;;;;;;;;;;;21.72;83.40;99703.34;1654305;85;21169;-83
2021/07/04 00:20:52;;;;;;;;;;;;;;;21.49;84.48;99706.41;1654929;86;20282;-83
2021/07/04 00:23:18;;;;;;;;;;;;;;;21.48;84.69;99708.77;1656255;86;20218;-83
2021/07/04 00:25:44;;;;;;;;;;;;;;;21.54;84.22;99708.91;1653704;85;20506;-82
2021/07/04 00:28:09;;;;;;;;;;;;;;;21.62;84.14;99701.80;1654203;85;20476;-83
2021/07/04 00:30:35;;;;;;;;;;;;;;;21.56;84.22;99701.42;1654937;86;21086;-84
2021/07/04 00:33:02;;;;;;;;;;;;;;;21.59;84.48;99700.94;1651619;85;20863;-85
2021/07/04 00:35:28;;;;;;;;;;;;;;;21.62;83.90;99696.43;1653620;86;20561;-85
2021/07/04 00:37:53;;;;;;;;;;;;;;;21.57;84.07;99695.80;1654632;85;20253;-85
2021/07/04 00:40:19;;;;;;;;;;;;;;;21.69;83.71;99691.73;1649564;85;20448;-85
2021/07/04 00:42:45;;;;;;;;;;;;;;;21.62;84.26;99693.74;1649497;85;21049;-85
2021/07/04 00:45:15;;;;;;;;;;;;;;;21.75;83.38;99696.15;1654863;85;20190;-85
2021/07/04 00:47:41;;;;;;;;;;;;;;;21.42;84.93;99688.77;1653874;85;20231;-85
2021/07/04 00:50:07;;;;;;;;;;;;;;;21.47;84.81;99688.34;1653694;85;20484;-84
2021/07/04 00:52:32;;;;;;;;;;;;;;;21.43;84.80;99685.84;1649000;85;20249;-84
2021/07/04 00:54:58;;;;;;;;;;;;;;;21.43;85.07;99687.19;1662179;85;21554;-84
2021/07/04 00:57:23;;;;;;;;;;;;;;;21.56;84.49;99686.10;1674109;85;20167;-84
2021/07/04 00:59:49;;;;;;;;;;;;;;;21.40;85.07;99693.03;1659528;83;20646;-84
2021/07/04 01:02:15;;;;;;;;;;;;;;;21.38;85.30;99679.54;1646596;83;20212;-84
2021/07/04 01:04:40;;;;;;;;;;;;;;;21.40;85.47;99680.94;1646380;83;20192;-85
2021/07/04 01:07:09;;;;;;;;;;;;;;;21.35;85.28;99696.97;1671313;84;22031;-84
2021/07/04 01:09:36;;;;;;;;;;;;;;;21.50;84.82;99689.23;1653618;83;20157;-84
2021/07/04 01:12:03;;;;;;;;;;;;;;;21.33;85.71;99686.47;1675999;83;20227;-84
2021/07/04 01:14:29;;;;;;;;;;;;;;;21.47;85.07;99682.97;1673561;83;20237;-84
2021/07/04 01:16:54;;;;;;;;;;;;;;;21.38;85.14;99697.00;1676898;85;20214;-84
2021/07/04 01:19:20;;;;;;;;;;;;;;;21.48;84.89;99685.92;1673850;85;21120;-84
2021/07/04 01:21:46;;;;;;;;;;;;;;;21.64;84.27;99681.70;1655995;83;20529;-84
2021/07/04 01:24:12;;;;;;;;;;;;;;;21.56;84.35;99681.27;1672946;83;20226;-83
2021/07/04 01:26:38;;;;;;;;;;;;;;;21.46;84.93;99688.05;1661996;83;20526;-84
2021/07/04 01:29:03;;;;;;;;;;;;;;;21.65;84.17;99685.20;1650423;83;20493;-85
2021/07/04 01:31:29;;;;;;;;;;;;;;;21.60;84.65;99693.17;1687055;85;21218;-85
2021/07/04 01:33:55;;;;;;;;;;;;;;;21.66;84.34;99689.53;1662333;84;20257;-85
2021/07/04 01:36:20;;;;;;;;;;;;;;;21.83;83.47;99687.69;1672848;83;20155;-85
2021/07/04 01:38:46;;;;;;;;;;;;;;;21.59;84.29;99694.22;1653389;83;20260;-85
2021/07/04 01:41:11;;;;;;;;;;;;;;;21.64;84.18;99691.62;1659397;84;20167;-86
2021/07/04 01:43:37;;;;;;;;;;;;;;;21.61;84.32;99690.76;1658478;83;21186;-85
2021/07/04 01:46:02;;;;;;;;;;;;;;;21.49;84.63;99686.25;1665749;83;20530;-85
2021/07/04 01:48:28;;;;;;;;;;;;;;;21.45;85.23;99679.69;1659022;83;20183;-85
2021/07/04 01:50:54;;;;;;;;;;;;;;;21.62;84.31;99674.39;1647484;83;20162;-85
2021/07/04 01:53:20;;;;;;;;;;;;;;;21.45;84.91;99675.66;1658799;83;20312;-85
2021/07/04 01:55:45;;;;;;;;;;;;;;;21.56;84.49;99676.70;1659147;83;21159;-85
2021/07/04 01:58:11;;;;;;;;;;;;;;;21.53;84.85;99681.75;1670871;83;20240;-85
2021/07/04 02:00:37;;;;;;;;;;;;;;;21.37;85.44;99678.73;1660558;83;20249;-85
2021/07/04 02:03:04;;;;;;;;;;;;;;;21.37;85.42;99673.36;1653638;83;20680;-85
2021/07/04 02:05:29;;;;;;;;;;;;;;;21.26;86.18;99679.59;1664214;84;20509;-85
2021/07/04 02:07:55;;;;;;;;;;;;;;;21.22;86.23;99681.92;1672245;83;21109;-85
2021/07/04 02:10:25;;;;;;;;;;;;;;;21.24;86.33;99681.69;1665288;85;20204;-85
2021/07/04 02:12:51;;;;;;;;;;;;;;;21.30;86.16;99676.20;1652195;83;20197;-86
2021/07/04 02:15:19;;;;;;;;;;;;;;;21.22;86.54;99681.92;1646647;83;20360;-84
2021/07/04 02:17:45;;;;;;;;;;;;;;;21.22;86.66;99678.43;1649853;83;20232;-84
2021/07/04 02:20:18;;;;;;;;;;;;;;;21.25;86.55;99680.64;1687571;84;21086;-84
2021/07/04 02:22:43;;;;;;;;;;;;;;;21.23;86.64;99673.36;1653921;83;20321;-83
2021/07/04 02:25:09;;;;;;;;;;;;;;;21.23;86.64;99674.70;1678205;84;20178;-83
2021/07/04 02:27:35;;;;;;;;;;;;;;;21.15;86.96;99682.06;1672473;85;20317;-83
2021/07/04 02:30:00;;;;;;;;;;;;;;;21.14;87.11;99686.33;1680396;85;20180;-83
2021/07/04 02:32:26;;;;;;;;;;;;;;;21.20;86.70;99676.52;1679394;83;21853;-83
2021/07/04 02:34:51;;;;;;;;;;;;;;;21.06;87.31;99694.23;1651407;83;20165;-83
2021/07/04 02:37:17;;;;;;;;;;;;;;;20.91;88.40;99687.19;1652432;83;20189;-83
2021/07/04 02:39:42;;;;;;;;;;;;;;;21.13;87.53;99693.58;1657391;83;20156;-83
2021/07/04 02:42:08;;;;;;;;;;;;;;;21.13;87.57;99686.87;1672161;85;20519;-84
2021/07/04 02:44:34;;;;;;;;;;;;;;;21.16;87.40;99694.95;1651926;83;21840;-84
2021/07/04 02:46:59;;;;;;;;;;;;;;;21.13;87.40;99699.45;1673182;83;20164;-83
2021/07/04 02:49:25;;;;;;;;;;;;;;;21.19;87.25;99703.08;1651571;83;20287;-83
2021/07/04 02:51:51;;;;;;;;;;;;;;;21.23;87.24;99704.23;1665403;83;20140;-83
2021/07/04 02:54:16;;;;;;;;;;;;;;;21.15;87.31;99700.86;1685299;85;20549;-83
2021/07/04 02:56:42;;;;;;;;;;;;;;;21.10;87.96;99700.77;1659099;83;21074;-83
2021/07/04 02:59:07;;;;;;;;;;;;;;;21.11;87.89;99699.69;1651828;83;20767;-84
2021/07/04 03:01:33;;;;;;;;;;;;;;;21.24;87.19;99699.14;1680801;84;20136;-84
2021/07/04 03:03:59;;;;;;;;;;;;;;;21.08;88.00;99697.48;1673821;85;20436;-84
2021/07/04 03:06:26;;;;;;;;;;;;;;;21.08;88.07;99696.67;1677010;83;20154;-85
2021/07/04 03:08:51;;;;;;;;;;;;;;;21.19;87.57;99692.33;1646015;83;21188;-85
2021/07/04 03:11:17;;;;;;;;;;;;;;;21.14;87.77;99694.39;1665507;83;20191;-86
2021/07/04 03:13:42;;;;;;;;;;;;;;;21.15;87.80;99698.17;1684175;83;20463;-86
2021/07/04 03:16:08;;;;;;;;;;;;;;;21.09;88.04;99701.81;1678078;84;20145;-86
2021/07/04 03:18:34;;;;;;;;;;;;;;;21.13;88.12;99707.00;1656319;83;20203;-86
2021/07/04 03:20:59;;;;;;;;;;;;;;;21.09;88.36;99708.52;1666191;84;21193;-87
2021/07/04 03:23:25;;;;;;;;;;;;;;;21.23;87.68;99716.33;1665977;83;20536;-87
2021/07/04 03:25:50;;;;;;;;;;;;;;;21.00;88.86;99708.59;1676042;83;20231;-87
2021/07/04 03:28:16;;;;;;;;;;;;;;;20.84;89.99;99713.36;1654106;83;20190;-87
2021/07/04 03:30:41;;;;;;;;;;;;;;;21.07;88.76;99719.23;1680458;85;20167;-87
2021/07/04 03:33:07;;;;;;;;;;;;;;;20.93;89.42;99715.97;1677514;83;21115;-87
2021/07/04 03:35:33;;;;;;;;;;;;;;;20.97;89.43;99727.34;1674591;83;20187;-87
2021/07/04 03:37:58;;;;;;;;;;;;;;;20.99;89.39;99725.77;1671266;83;20285;-87
2021/07/04 03:40:24;;;;;;;;;;;;;;;20.91;90.09;99724.77;1687256;85;20159;-88
2021/07/04 03:42:50;;;;;;;;;;;;;;;20.75;90.89;99720.93;1647768;83;20188;-88
2021/07/04 03:45:16;;;;;;;;;;;;;;;20.88;90.24;99723.89;1658226;83;21069;-87
2021/07/04 03:47:41;;;;;;;;;;;;;;;21.14;89.20;99724.73;1666044;83;20464;-87
2021/07/04 03:50:07;;;;;;;;;;;;;;;21.24;88.87;99724.66;1659439;83;20173;-87
2021/07/04 03:52:33;;;;;;;;;;;;;;;21.31;88.73;99726.69;1659291;83;20201;-87
2021/07/04 03:54:59;;;;;;;;;;;;;;;21.29;88.41;99740.89;1687066;83;20221;-87
2021/07/04 03:57:24;;;;;;;;;;;;;;;21.34;88.30;99728.91;1664344;85;21150;-87
2021/07/04 03:59:51;;;;;;;;;;;;;;;21.31;88.07;99730.72;1680697;85;20838;-87
2021/07/04 04:02:17;;;;;;;;;;;;;;;21.22;88.30;99733.48;1653420;83;20238;-87
2021/07/04 04:04:43;;;;;;;;;;;;;;;21.38;88.10;99735.44;1672459;83;20221;-87
2021/07/04 04:07:09;;;;;;;;;;;;;;;21.40;87.87;99731.98;1652469;83;20484;-87
2021/07/04 04:09:34;;;;;;;;;;;;;;;21.61;87.15;99737.78;1672227;83;21092;-87
2021/07/04 04:12:00;;;;;;;;;;;;;;;21.55;87.01;99723.95;1676380;84;20226;-87
2021/07/04 04:14:25;;;;;;;;;;;;;;;21.52;87.56;99725.27;1680579;85;20182;-88
2021/07/04 04:16:51;;;;;;;;;;;;;;;21.43;87.50;99730.16;1671870;83;20643;-88
2021/07/04 04:19:17;;;;;;;;;;;;;;;21.50;87.39;99724.17;1662496;83;20171;-88
2021/07/04 04:21:42;;;;;;;;;;;;;;;21.49;87.48;99730.58;1680585;85;21108;-86
2021/07/04 04:24:08;;;;;;;;;;;;;;;21.45;87.44;99730.73;1664406;83;20518;-86
2021/07/04 04:26:33;;;;;;;;;;;;;;;21.59;86.92;99729.16;1674749;84;20183;-86
2021/07/04 04:28:59;;;;;;;;;;;;;;;21.54;87.05;99727.18;1684188;85;20171;-86
2021/07/04 04:31:24;;;;;;;;;;;;;;;21.47;87.20;99728.64;1652052;83;20249;-86
2021/07/04 04:33:50;;;;;;;;;;;;;;;21.56;86.88;99724.26;1659169;83;21709;-84
2021/07/04 04:36:15;;;;;;;;;;;;;;;21.32;88.15;99731.02;1677323;85;20204;-85
2021/07/04 04:38:41;;;;;;;;;;;;;;;21.30;88.03;99721.02;1656458;83;20453;-85
2021/07/04 04:41:07;;;;;;;;;;;;;;;21.39;88.00;99724.16;1653269;83;20170;-85
2021/07/04 04:43:32;;;;;;;;;;;;;;;21.40;87.75;99722.58;1671987;83;20185;-85
2021/07/04 04:45:58;;;;;;;;;;;;;;;21.57;87.18;99728.59;1649238;83;21207;-85
2021/07/04 04:48:23;;;;;;;;;;;;;;;21.56;87.07;99732.31;1672426;84;20548;-85
2021/07/04 04:50:49;;;;;;;;;;;;;;;21.69;86.31;99726.67;1684863;85;20159;-87
2021/07/04 04:53:14;;;;;;;;;;;;;;;21.67;86.66;99731.45;1655139;83;20473;-84
2021/07/04 04:55:40;;;;;;;;;;;;;;;21.70;86.50;99736.34;1670795;83;20215;-85
2021/07/04 04:58:06;;;;;;;;;;;;;;;21.68;86.71;99733.09;1685946;84;21188;-85
2021/07/04 05:00:31;;;;;;;;;;;;;;;21.73;86.30;99741.24;1672328;83;20183;-85
2021/07/04 05:03:03;;;;;;;;;;;;;;;21.73;86.06;99730.48;1672433;83;20632;-85
2021/07/04 05:05:24;;;;;;;;;;;;;;;21.82;86.23;99733.08;1671877;83;20532;-85
2021/07/04 05:07:50;;;;;;;;;;;;;;;21.73;86.27;99732.38;1674200;85;20224;-89
2021/07/04 05:10:16;;;;;;;;;;;;;;;21.86;85.86;99735.59;1658924;83;21066;-88
2021/07/04 05:12:41;;;;;;;;;;;;;;;21.91;85.26;99734.03;1645952;83;20165;-84
2021/07/04 05:15:08;;;;;;;;;;;;;;;21.90;85.51;99739.95;1639881;85;20714;-84
2021/07/04 05:17:33;;;;;;;;;;;;;;;21.89;85.34;99734.27;1648294;85;20189;-84
2021/07/04 05:19:59;;;;;;;;;;;;;;;21.80;85.33;99739.23;1647254;85;20181;-84
2021/07/04 05:22:24;;;;;;;;;;;;;;;21.90;85.02;99741.28;1634006;86;21002;-84
2021/07/04 05:24:50;;;;;;;;;;;;;;;22.00;84.57;99741.48;1643111;85;20459;-83
2021/07/04 05:27:16;;;;;;;;;;;;;;;22.03;84.60;99749.58;1642147;86;20177;-84
2021/07/04 05:29:41;;;;;;;;;;;;;;;21.82;85.55;99745.72;1634249;86;20577;-83
2021/07/04 05:32:07;;;;;;;;;;;;;;;21.77;85.47;99746.44;1641775;85;20126;-84
2021/07/04 05:34:32;;;;;;;;;;;;;;;21.86;85.20;99750.88;1639594;85;21146;-84
2021/07/04 05:36:58;;;;;;;;;;;;;;;21.90;85.11;99751.23;1645154;86;20312;-84
2021/07/04 05:39:27;;;;;;;;;;;;;;;21.96;85.02;99750.27;1644160;85;20141;-84
2021/07/04 05:41:51;;;;;;;;;;;;;;;22.01;84.87;99750.35;1642320;85;20202;-84
2021/07/04 05:44:17;;;;;;;;;;;;;;;22.00;84.95;99756.78;1653109;86;20212;-84
2021/07/04 05:46:43;;;;;;;;;;;;;;;22.13;84.35;99749.77;1643270;85;21833;-84
2021/07/04 05:49:08;;;;;;;;;;;;;;;21.99;85.01;99749.25;1639248;86;20200;-84
2021/07/04 05:51:34;;;;;;;;;;;;;;;21.96;85.17;99747.58;1620737;86;20145;-84
2021/07/04 05:53:59;;;;;;;;;;;;;;;21.96;85.09;99748.39;1645999;86;20149;-84
2021/07/04 05:56:25;;;;;;;;;;;;;;;22.14;84.33;99747.38;1648193;85;20145;-84
2021/07/04 05:58:50;;;;;;;;;;;;;;;22.42;83.43;99743.03;1649766;85;21168;-85
2021/07/04 06:01:16;;;;;;;;;;;;;;;22.73;82.02;99746.16;1641205;85;20145;-85
2021/07/04 06:03:41;;;;;;;;;;;;;;;22.54;82.72;99749.14;1639520;86;20197;-83
2021/07/04 06:06:07;;;;;;;;;;;;;;;22.53;82.57;99746.16;1648451;86;20637;-84
2021/07/04 06:08:33;;;;;;;;;;;;;;;22.61;82.23;99748.13;1648248;86;20634;-83
2021/07/04 06:10:58;;;;;;;;;;;;;;;22.78;81.55;99747.61;1648075;86;21202;-84
2021/07/04 06:13:24;;;;;;;;;;;;;;;22.59;81.78;99749.21;1653221;85;20265;-84
2021/07/04 06:15:50;;;;;;;;;;;;;;;22.58;82.13;99750.27;1634008;85;20177;-84
2021/07/04 06:18:15;;;;;;;;;;;;;;;22.73;81.33;99746.16;1652932;85;20307;-84
2021/07/04 06:20:41;;;;;;;;;;;;;;;22.79;81.46;99747.88;1653360;85;20485;-84
2021/07/04 06:23:07;;;;;;;;;;;;;;;22.76;81.04;99753.75;1648270;85;21101;-82
2021/07/04 06:25:33;;;;;;;;;;;;;;;22.82;80.40;99758.15;1638274;85;20203;-83
2021/07/04 06:27:58;;;;;;;;;;;;;;;22.76;80.79;99751.89;1654742;86;20169;-84
2021/07/04 06:30:24;;;;;;;;;;;;;;;22.63;81.46;99752.77;1642788;85;20198;-82
2021/07/04 06:32:49;;;;;;;;;;;;;;;22.68;81.26;99754.17;1658632;85;20206;-83
2021/07/04 06:35:15;;;;;;;;;;;;;;;22.55;81.74;99759.37;1679336;83;21097;-83
2021/07/04 06:37:41;;;;;;;;;;;;;;;22.44;82.29;99758.39;1658919;83;20215;-83
2021/07/04 06:40:07;;;;;;;;;;;;;;;22.41;82.54;99761.02;1666440;83;20273;-83
2021/07/04 06:42:33;;;;;;;;;;;;;;;22.22;83.23;99757.73;1673524;84;20223;-82
2021/07/04 06:44:58;;;;;;;;;;;;;;;22.44;82.59;99758.92;1673735;84;20605;-83
2021/07/04 06:47:24;;;;;;;;;;;;;;;22.41;82.61;99760.22;1664373;83;21070;-83
2021/07/04 06:49:50;;;;;;;;;;;;;;;22.27;83.01;99762.91;1666890;83;20479;-84
2021/07/04 06:52:15;;;;;;;;;;;;;;;22.36;82.80;99764.18;1658928;83;20137;-83
2021/07/04 06:54:41;;;;;;;;;;;;;;;22.20;83.21;99761.20;1671846;83;20536;-84
2021/07/04 06:59:51;;;;;;;;;;;;;;;22.20;83.22;99762.54;1666538;83;20247;-83
2021/07/04 07:02:16;;;;;;;;;;;;;;;22.38;82.68;99761.52;1653476;83;20191;-82
2021/07/04 07:04:42;;;;;;;;;;;;;;;22.41;82.64;99765.60;1644380;86;20208;-83
2021/07/04 07:07:07;;;;;;;;;;;;;;;22.42;82.34;99769.94;1653067;86;20244;-83
2021/07/04 07:09:33;;;;;;;;;;;;;;;22.47;82.17;99750.36;1647286;85;20157;-84
2021/07/04 07:11:58;;;;;;;;;;;;;;;22.49;82.26;99754.42;1659659;84;21498;-83
2021/07/04 07:14:24;;;;;;;;;;;;;;;22.61;81.74;99752.17;1656218;85;20137;-82
2021/07/04 07:16:50;;;;;;;;;;;;;;;22.67;81.38;99758.75;1655815;86;20165;-83
2021/07/04 07:19:15;;;;;;;;;;;;;;;22.61;81.12;99750.83;1656891;85;20185;-81
2021/07/04 07:21:45;;;;;;;;;;;;;;;22.70;80.90;99752.05;1649521;85;20160;-80
2021/07/04 07:24:09;;;;;;;;;;;;;;;22.90;80.45;99757.75;1652978;85;20176;-82
2021/07/04 07:26:35;;;;;;;;;;;;;;;23.02;79.96;99750.89;1658271;86;20225;-83
2021/07/04 07:29:01;;;;;;;;;;;;;;;23.02;79.64;99749.55;1660213;86;20161;-81
2021/07/04 07:31:26;;;;;;;;;;;;;;;23.06;79.34;99752.58;1652199;85;20157;-86
2021/07/04 07:33:52;;;;;;;;;;;;;;;23.05;78.88;99753.63;1652705;86;20177;-86
2021/07/04 07:36:17;;;;;;;;;;;;;;;23.06;79.27;99752.58;1651294;85;21205;-84
2021/07/04 07:38:43;;;;;;;;;;;;;;;23.05;79.04;99753.09;1660577;85;20475;-87
2021/07/04 07:41:09;;;;;;;;;;;;;;;23.17;79.07;99757.06;1659044;85;20203;-85
2021/07/04 07:43:34;;;;;;;;;;;;;;;23.08;79.32;99751.79;1647169;85;20606;-87
2021/07/04 07:46:00;;;;;;;;;;;;;;;23.21;78.58;99760.06;1654371;85;20164;-87
2021/07/04 07:48:25;;;;;;;;;;;;;;;23.26;78.48;99746.68;1659273;86;21058;-87
2021/07/04 07:50:51;;;;;;;;;;;;;;;23.17;78.41;99743.59;1655941;86;20470;-87
2021/07/04 07:53:16;;;;;;;;;;;;;;;23.15;78.36;99757.02;1657212;85;20231;-87
2021/07/04 07:55:42;;;;;;;;;;;;;;;23.09;78.48;99752.11;1659284;85;20200;-83
2021/07/04 07:58:13;;;;;;;;;;;;;;;23.02;78.95;99754.12;1654544;85;20204;-87
2021/07/04 08:00:36;;;;;;;;;;;;;;;22.94;79.26;99750.79;1685051;83;20210;-87
2021/07/04 08:03:02;;;;;;;;;;;;;;;23.17;78.15;99751.67;1693214;84;20597;-86
2021/07/04 08:05:27;;;;;;;;;;;;;;;;;;1693720;83;20236;-90
2021/07/04 08:07:53;;;;;;;;;;;;;;;23.21;77.83;99753.33;1693475;84;20701;-88
2021/07/04 08:10:19;;;;;;;;;;;;;;;23.12;78.10;99751.62;1695239;84;20201;-89
2021/07/04 08:12:44;;;;;;;;;;;;;;;23.17;77.70;99747.64;1692924;83;21084;-90
2021/07/04 08:15:12;;;;;;;;;;;;;;;23.42;76.81;99751.72;1695100;83;20146;-93
2021/07/04 08:17:38;;;;;;;;;;;;;;;23.27;77.41;99746.43;1693610;83;20186;-88
2021/07/04 08:20:04;;;;;;;;;;;;;;;23.27;78.08;99746.43;1687731;84;20607;-93
2021/07/04 08:22:30;;;;;;;;;;;;;;;23.43;77.30;99745.25;1694030;83;20228;-95
2021/07/04 08:24:55;;;;;;;;;;;;;;;23.48;77.52;99741.28;1694183;84;21012;-85
2021/07/04 08:27:21;;;;;;;;;;;;;;;23.68;76.07;99753.34;1692396;83;20235;-88
2021/07/04 08:29:46;;;;;;;;;;;;;;;23.48;76.35;99752.06;1692779;83;20182;-84
2021/07/04 08:32:12;;;;;;;;;;;;;;;23.46;76.02;99742.05;1694390;84;20684;-86
2021/07/04 08:34:38;;;;;;;;;;;;;;;23.53;75.89;99742.68;1680378;83;20216;-85
2021/07/04 08:37:03;;;;;;;;;;;;;;;23.67;75.71;99737.72;1687246;85;21164;-85
2021/07/04 08:39:31;;;;;;;;;;;;;;;23.53;76.45;99741.33;1669473;83;20282;-81
2021/07/04 08:41:56;;;;;;;;;;;;;;;23.66;75.61;99740.95;1686348;85;20187;-85
2021/07/04 08:44:22;;;;;;;;;;;;;;;23.91;74.47;99746.38;1684468;84;20164;-85
2021/07/04 08:46:48;;;;;;;;;;;;;;;23.97;75.19;99748.05;1669036;85;20451;-88
2021/07/04 08:49:13;;;;;;;;;;;;;;;23.85;74.37;99747.39;1650724;83;21202;-86
2021/07/04 08:51:39;;;;;;;;;;;;;;;23.93;74.35;99742.87;1660303;83;20293;-89
2021/07/04 08:54:05;;;;;;;;;;;;;;;24.09;73.95;99743.02;1660691;83;20263;-86
2021/07/04 08:56:31;;;;;;;;;;;;;;;23.94;73.47;99758.00;1678431;83;20175;-83
2021/07/04 08:58:56;;;;;;;;;;;;;;;23.74;73.96;99753.17;1674183;83;20258;-87
2021/07/04 09:01:24;;;;;;;;;;;;;;;23.90;73.69;99753.36;1665840;83;20989;-85
2021/07/04 09:03:56;;;;;;;;;;;;;;;23.81;74.04;99747.03;1664440;83;20234;-84
2021/07/04 09:06:46;;;;;;;;;;;;;;;23.92;73.36;99750.67;1640873;83;20250;-85
2021/07/04 09:09:28;;;;;;;;;;;;;;;24.32;72.28;99737.28;1648650;84;20358;-84
2021/07/04 09:12:06;;;;;;;;;;;;;;;24.25;72.79;99742.06;1671056;85;20569;-83
2021/07/04 09:14:37;;;;;;;;;;;;;;;24.49;71.87;99741.74;1667496;84;21118;-83
2021/07/04 09:17:04;;;;;;;;;;;;;;;24.38;71.52;99738.95;1652017;83;20209;-79
2021/07/04 09:19:30;;;;;;;;;;;;;;;24.53;70.82;99730.69;1663322;83;20251;-82
2021/07/04 09:21:58;;;;;;;;;;;;;;;24.35;70.63;99730.02;1659634;83;20601;-79
2021/07/04 09:24:38;;;;;;;;;;;;;;;24.61;71.20;99723.50;1665399;83;20271;-80
2021/07/04 09:27:05;;;;;;;;;;;;;;;24.89;70.18;99726.89;1660595;83;21018;-82
2021/07/04 09:29:48;;;;;;;;;;;;;;;24.73;69.31;99725.99;1658696;83;20606;-82
2021/07/04 09:32:27;;;;;;;;;;;;;;;25.08;68.68;99718.63;1656701;83;20307;-82
2021/07/04 09:35:13;;;;;;;;;;;;;;;24.92;69.25;99723.66;1666945;83;20215;-83
2021/07/04 09:37:45;;;;;;;;;;;;;;;24.94;68.20;99713.44;1678977;85;20207;-82
2021/07/04 09:40:26;;;;;;;;;;;;;;;24.93;68.99;99719.90;1650503;83;21155;-81
2021/07/04 09:43:06;;;;;;;;;;;;;;;25.21;68.85;99714.62;1683044;85;20203;-80
2021/07/04 09:45:47;;;;;;;;;;;;;;;25.29;68.56;99709.28;1662259;83;20210;-78
2021/07/04 09:48:14;;;;;;;;;;;;;;;25.39;67.82;99708.52;1676868;84;20231;-79
2021/07/04 09:50:41;;;;;;;;;;;;;;;25.34;67.07;99713.38;1670532;83;20610;-82
2021/07/04 09:53:07;;;;;;;;;;;;;;;25.46;66.44;99704.20;1667135;83;21135;-81
2021/07/04 09:55:33;;;;;;;;;;;;;;;25.60;66.40;99703.42;1676549;84;20819;-86
2021/07/04 09:58:01;;;;;;;;;;;;;;;25.67;66.10;99713.17;1669545;83;20179;-90
2021/07/04 10:00:30;;;;;;;;;;;;;;;25.93;65.41;99703.20;1662853;83;20229;-87
2021/07/04 10:03:14;;;;;;;;;;;;;;;25.85;65.10;99698.34;1652236;83;36269;-87
2021/07/04 10:05:44;;;;;;;;;;;;;;;26.09;65.06;99700.82;1682312;85;21026;-88
2021/07/04 10:08:34;;;;;;;;;;;;;;;26.01;64.60;99698.66;1669795;83;20393;-89
2021/07/04 10:11:12;;;;;;;;;;;;;;;26.17;64.78;99697.31;1655887;83;20244;-92
2021/07/04 10:13:39;;;;;;;;;;;;;;;26.31;64.43;99695.67;1653077;85;20193;-90
2021/07/04 10:16:06;;;;;;;;;;;;;;;26.42;63.45;99681.04;1655277;86;20195;-89
2021/07/04 10:18:32;;;;;;;;;;;;;;;26.39;63.74;99685.64;1655080;86;21135;-89
2021/07/04 10:20:58;;;;;;;;;;;;;;;26.54;63.61;99678.57;1653855;85;20510;-90
2021/07/04 10:23:25;;;;;;;;;;;;;;;26.49;63.69;99674.81;1654610;85;20955;-88
2021/07/04 10:25:51;;;;;;;;;;;;;;;26.30;63.33;99687.27;1653502;86;20199;-87
2021/07/04 10:28:25;;;;;;;;;;;;;;;26.44;62.74;99672.09;1638495;85;20251;-87
2021/07/04 10:30:51;;;;;;;;;;;;;;;26.68;62.04;99672.35;1625848;84;22020;-88
2021/07/04 10:33:24;;;;;;;;;;;;;;;26.30;63.31;99678.64;1626107;84;20209;-86
2021/07/04 10:36:05;;;;;;;;;;;;;;;26.56;62.99;99660.17;1650703;85;20185;-86
2021/07/04 10:38:55;;;;;;;;;;;;;;;26.53;62.38;99668.84;1649005;85;20202;-89
2021/07/04 10:41:23;;;;;;;;;;;;;;;26.63;62.63;99657.45;1644915;86;20185;-87
2021/07/04 10:43:57;;;;;;;;;;;;;;;26.10;64.10;99661.86;1654499;84;21155;-90
2021/07/04 10:46:46;;;;;;;;;;;;;;;26.53;63.26;99658.02;1665614;83;20192;-86
2021/07/04 10:49:20;;;;;;;;;;;;;;;26.60;63.30;99669.35;1656605;85;20152;-87
2021/07/04 10:52:09;;;;;;;;;;;;;;;26.83;62.77;99652.55;1655923;85;20171;-87
2021/07/04 10:54:46;;;;;;;;;;;;;;;26.81;61.99;99653.89;1667855;84;20352;-88
2021/07/04 10:57:21;;;;;;;;;;;;;;;26.94;61.92;99645.19;1692055;83;21128;-89
2021/07/04 11:00:06;;;;;;;;;;;;;;;27.09;61.41;99647.55;1691612;84;20203;-91
2021/07/04 11:02:55;;;;;;;;;;;;;;;27.18;61.11;99641.27;1678279;83;20261;-90
2021/07/04 11:05:38;;;;;;;;;;;;;;;27.18;61.09;99637.20;1691598;84;20730;-87
2021/07/04 11:08:16;;;;;;;;;;;;;;;27.19;61.29;99635.28;1692343;84;20214;-82
2021/07/04 11:10:56;;;;;;;;;;;;;;;27.56;60.58;99633.48;1693062;84;21981;-89
2021/07/04 11:13:25;;;;;;;;;;;;;;;27.23;60.51;99637.16;1629273;85;20180;-88
2021/07/04 11:16:10;;;;;;;;;;;;;;;27.20;61.23;99635.01;1633921;86;20162;-89
2021/07/04 11:18:49;;;;;;;;;;;;;;;27.56;60.10;99627.23;1623362;86;20217;-87
2021/07/04 11:21:21;;;;;;;;;;;;;;;27.55;60.00;99627.78;1647694;83;20202;-89
2021/07/04 11:23:49;;;;;;;;;;;;;;;27.74;58.91;99624.39;1641236;85;21239;-87
2021/07/04 11:26:16;;;;;;;;;;;;;;;27.83;59.13;99622.70;1638488;86;20221;-89
2021/07/04 11:28:44;;;;;;;;;;;;;;;27.64;59.12;99624.46;1652215;85;20268;-85
2021/07/04 11:31:17;;;;;;;;;;;;;;;27.71;58.78;99624.96;1641965;84;20245;-86
2021/07/04 11:33:54;;;;;;;;;;;;;;;27.86;58.46;99616.70;1647080;84;20192;-85
2021/07/04 11:36:26;;;;;;;;;;;;;;;27.92;58.03;99619.63;1635537;83;21083;-86
2021/07/04 11:38:53;;;;;;;;;;;;;;;28.07;57.89;99612.47;1658227;83;20221;-86
2021/07/04 11:41:24;;;;;;;;;;;;;;;28.23;57.98;99607.16;1665476;83;20166;-87
2021/07/04 11:43:53;;;;;;;;;;;;;;;28.08;57.97;99611.39;1652631;83;20522;-86
2021/07/04 11:46:21;;;;;;;;;;;;;;;28.16;56.83;99603.17;1665113;83;20335;-86
2021/07/04 11:48:53;;;;;;;;;;;;;;;27.99;57.06;99603.59;1674353;83;21117;-87
2021/07/04 11:51:28;;;;;;;;;;;;;;;27.87;56.83;99601.22;1666344;84;20232;-87
2021/07/04 11:53:57;;;;;;;;;;;;;;;28.03;56.48;99597.31;1643107;85;20547;-87
2021/07/04 11:56:22;;;;;;;;;;;;;;;28.37;55.82;99596.43;1650014;85;20185;-86
2021/07/04 11:58:48;;;;;;;;;;;;;;;28.34;56.06;99597.53;1628612;84;20631;-87
2021/07/04 12:01:16;;;;;;;;;;;;;;;28.53;55.90;99601.13;1622210;84;21116;-89
2021/07/04 12:03:42;;;;;;;;;;;;;;;28.45;56.25;99606.66;1643709;84;20248;-89
2021/07/04 12:06:08;;;;;;;;;;;;;;;28.19;56.71;99596.61;1655068;85;20549;-89
2021/07/04 12:08:55;;;;;;;;;;;;;;;28.32;56.91;99587.52;1640214;85;20167;-89
2021/07/04 12:11:42;;;;;;;;;;;;;;;28.12;57.20;99585.27;1632748;84;20214;-88
2021/07/04 12:14:22;;;;;;;;;;;;;;;28.26;57.40;99574.00;1636382;84;21098;-87
2021/07/04 12:16:50;;;;;;;;;;;;;;;28.71;56.81;99575.67;1628231;84;20180;-87
2021/07/04 12:19:29;;;;;;;;;;;;;;;28.83;55.67;99578.78;1637057;84;20200;-87
2021/07/04 12:21:55;;;;;;;;;;;;;;;29.00;55.83;99570.93;1655080;86;20198;-88
2021/07/04 12:24:23;;;;;;;;;;;;;;;29.17;55.74;99569.62;1633837;84;20228;-88
2021/07/04 12:26:48;;;;;;;;;;;;;;;29.28;54.20;99570.31;1633804;84;21993;-87
2021/07/04 12:29:14;;;;;;;;;;;;;;;29.31;54.02;99577.31;1640013;84;20164;-87
2021/07/04 12:31:39;;;;;;;;;;;;;;;29.27;52.40;99579.03;1639574;83;20215;-86
2021/07/04 12:34:05;;;;;;;;;;;;;;;29.06;50.69;99587.98;1638150;83;20178;-87
2021/07/04 12:36:33;;;;;;;;;;;;;;;29.01;51.20;99590.23;1649510;86;20626;-87
2021/07/04 12:39:09;;;;;;;;;;;;;;;28.84;51.36;99598.08;1651841;85;20145;-88
2021/07/04 12:41:34;;;;;;;;;;;;;;;28.45;52.10;99592.27;1637914;86;20279;-87
2021/07/04 12:44:01;;;;;;;;;;;;;;;28.24;52.88;99582.97;1638513;86;20734;-87
2021/07/04 12:46:28;;;;;;;;;;;;;;;28.14;53.53;99592.59;1649013;84;20629;-88
2021/07/04 12:48:55;;;;;;;;;;;;;;;27.85;53.95;99587.94;1689912;84;20222;-88
2021/07/04 12:51:30;;;;;;;;;;;;;;;27.47;53.03;99591.78;1678850;83;20801;-87
2021/07/04 12:53:56;;;;;;;;;;;;;;;27.30;53.50;99602.98;1652623;83;20192;-88